Time;durP1;ratioP1;P1;durP2;ratioP2;P2;SDS_P1;SDS_P2;PMS_P1;PMS_P2;Temp;Humidity;BMP_temperature;BMP_pressure;BME280_temperature;BME280_humidity;BME280_pressure;Samples;Min_cycle;Max_cycle;Signal;HPM_P1;HPM_P2
2021/08/14 00:01:41;;;;;;;18.55;4.13;;;21.90;99.90;;;;;;4896475;29;20041;-78
2021/08/14 00:04:08;;;;;;;16.50;4.05;;;21.80;99.90;;;;;;4868545;29;20051;-78
2021/08/14 00:06:34;;;;;;;13.75;4.07;;;21.80;99.90;;;;;;4885526;29;20048;-78
2021/08/14 00:09:00;;;;;;;24.30;4.97;;;21.80;99.90;;;;;;4877033;29;20041;-78
2021/08/14 00:11:25;;;;;;;14.05;3.80;;;21.80;99.90;;;;;;4877845;29;20489;-78
2021/08/14 00:13:51;;;;;;;14.98;3.95;;;21.70;99.90;;;;;;4889898;29;20837;-78
2021/08/14 00:16:17;;;;;;;16.85;3.67;;;21.70;99.90;;;;;;4895900;29;20033;-78
2021/08/14 00:18:43;;;;;;;16.02;4.10;;;21.70;99.90;;;;;;4895246;29;20040;-78
2021/08/14 00:21:08;;;;;;;17.88;4.25;;;21.70;99.90;;;;;;4879243;29;20045;-78
2021/08/14 00:23:34;;;;;;;17.05;4.35;;;21.70;99.90;;;;;;4895331;29;20055;-78
2021/08/14 00:26:00;;;;;;;12.27;3.55;;;21.70;99.90;;;;;;4896095;29;20052;-77
2021/08/14 00:28:25;;;;;;;19.17;4.13;;;21.70;99.90;;;;;;4894671;29;20053;-78
2021/08/14 00:30:51;;;;;;;18.48;4.28;;;21.70;99.90;;;;;;4895883;29;20494;-78
2021/08/14 00:33:17;;;;;;;19.88;4.60;;;21.70;99.90;;;;;;4892148;29;20056;-78
2021/08/14 00:35:42;;;;;;;19.30;4.75;;;21.70;99.90;;;;;;4884192;29;20091;-78
2021/08/14 00:38:08;;;;;;;18.23;4.65;;;21.60;99.90;;;;;;4876024;29;20161;-78
2021/08/14 00:40:34;;;;;;;15.63;3.95;;;21.50;99.90;;;;;;4876342;29;20124;-78
2021/08/14 00:43:01;;;;;;;26.08;4.10;;;21.50;99.90;;;;;;4877252;29;20041;-78
2021/08/14 00:45:28;;;;;;;21.25;4.18;;;21.50;99.90;;;;;;4876169;29;20433;-78
2021/08/14 00:47:54;;;;;;;17.17;4.55;;;21.40;99.90;;;;;;4876743;29;20052;-78
2021/08/14 00:50:19;;;;;;;20.40;4.95;;;21.40;99.90;;;;;;4876065;29;20049;-78
2021/08/14 00:52:45;;;;;;;18.13;4.20;;;21.50;99.90;;;;;;4876724;29;20508;-78
2021/08/14 00:55:12;;;;;;;24.98;4.70;;;21.40;99.90;;;;;;4876597;29;20063;-78
2021/08/14 00:57:40;;;;;;;15.90;4.70;;;21.40;99.90;;;;;;4873891;29;20453;-78
2021/08/14 01:00:07;;;;;;;13.93;4.10;;;21.40;99.90;;;;;;4895063;29;20036;-78
2021/08/14 01:02:33;;;;;;;17.92;3.97;;;21.30;99.90;;;;;;4894399;29;20099;-78
2021/08/14 01:04:58;;;;;;;15.23;3.42;;;21.40;99.90;;;;;;4895082;29;20837;-78
2021/08/14 01:07:24;;;;;;;17.80;4.20;;;21.30;99.90;;;;;;4894828;29;20378;-78
2021/08/14 01:09:49;;;;;;;19.73;4.25;;;21.30;99.90;;;;;;4878031;29;20117;-78
2021/08/14 01:12:16;;;;;;;16.58;3.70;;;21.20;99.90;;;;;;4894589;29;20989;-78
2021/08/14 01:14:49;;;;;;;21.38;4.85;;;21.20;99.90;;;;;;4894801;29;20039;-78
2021/08/14 01:17:16;;;;;;;20.33;4.70;;;21.30;99.90;;;;;;4894754;29;20037;-78
2021/08/14 01:19:43;;;;;;;17.13;3.85;;;21.20;99.90;;;;;;4894964;29;20051;-78
2021/08/14 01:22:13;;;;;;;15.07;4.32;;;21.20;99.90;;;;;;4894776;29;20049;-78
2021/08/14 01:24:39;;;;;;;19.98;4.40;;;21.10;99.90;;;;;;4894191;29;20060;-78
2021/08/14 01:27:06;;;;;;;14.48;3.67;;;21.00;99.90;;;;;;4894576;29;20048;-78
2021/08/14 01:29:32;;;;;;;15.32;3.95;;;21.10;99.90;;;;;;4877111;29;20052;-78
2021/08/14 01:31:58;;;;;;;27.15;4.95;;;21.00;99.90;;;;;;4894456;29;20040;-78
2021/08/14 01:34:23;;;;;;;15.55;4.15;;;21.10;99.90;;;;;;4894220;29;20056;-78
2021/08/14 01:36:50;;;;;;;20.77;4.90;;;21.10;99.90;;;;;;4894424;29;20602;-78
2021/08/14 01:39:16;;;;;;;20.48;4.30;;;21.00;99.90;;;;;;4876782;29;20072;-78
2021/08/14 01:42:03;;;;;;;12.10;3.58;;;21.00;99.90;;;;;;4883625;29;20045;-78
2021/08/14 01:44:30;;;;;;;14.15;4.22;;;21.00;99.90;;;;;;4882830;29;20089;-78
2021/08/14 01:46:56;;;;;;;21.17;4.25;;;21.00;99.90;;;;;;4875528;29;20469;-78
2021/08/14 01:49:22;;;;;;;20.35;4.40;;;20.90;99.90;;;;;;4875214;29;20037;-78
2021/08/14 01:51:48;;;;;;;15.75;4.38;;;20.80;99.90;;;;;;4859313;29;20186;-78
2021/08/14 01:54:15;;;;;;;21.63;4.35;;;20.80;99.90;;;;;;4865056;29;20556;-78
2021/08/14 01:56:41;;;;;;;20.77;4.22;;;20.80;99.90;;;;;;4893593;29;20063;-78
2021/08/14 01:59:06;;;;;;;13.85;4.07;;;20.70;99.90;;;;;;4894355;29;20408;-78
2021/08/14 02:01:32;;;;;;;16.58;4.45;;;20.70;99.90;;;;;;4894076;29;20123;-78
2021/08/14 02:03:58;;;;;;;20.80;4.45;;;20.70;99.90;;;;;;4894328;29;20035;-78
2021/08/14 02:06:25;;;;;;;13.65;3.45;;;20.60;99.90;;;;;;4893903;29;20045;-78
2021/08/14 02:08:51;;;;;;;17.58;4.15;;;20.60;99.90;;;;;;4877141;29;20089;-78
2021/08/14 02:11:19;;;;;;;20.75;4.43;;;20.70;99.90;;;;;;4893805;29;20047;-78
2021/08/14 02:13:47;;;;;;;14.25;3.97;;;20.70;99.90;;;;;;4894351;29;20055;-78
2021/08/14 02:16:13;;;;;;;23.00;3.97;;;20.60;99.90;;;;;;4876617;29;20251;-78
2021/08/14 02:18:39;;;;;;;16.30;4.18;;;20.60;99.90;;;;;;4877022;29;20081;-78
2021/08/14 02:21:05;;;;;;;23.10;4.68;;;20.50;99.90;;;;;;4882292;29;20041;-78
2021/08/14 02:23:31;;;;;;;20.27;4.05;;;20.60;99.90;;;;;;4875317;29;20053;-78
2021/08/14 02:25:58;;;;;;;16.13;4.20;;;20.50;99.90;;;;;;4863990;29;20501;-78
2021/08/14 02:28:23;;;;;;;19.70;4.38;;;20.50;99.90;;;;;;4875256;29;20064;-78
2021/08/14 02:30:49;;;;;;;15.77;4.03;;;20.50;99.90;;;;;;4881614;29;20048;-78
2021/08/14 02:33:15;;;;;;;15.50;4.53;;;20.50;99.90;;;;;;4894417;29;20101;-78
2021/08/14 02:35:41;;;;;;;16.80;4.25;;;20.40;99.90;;;;;;4894015;29;20044;-78
2021/08/14 02:38:07;;;;;;;19.98;4.68;;;20.50;99.90;;;;;;4894126;29;20066;-78
2021/08/14 02:40:34;;;;;;;15.85;4.75;;;20.40;99.90;;;;;;4876657;29;20124;-78
2021/08/14 02:43:00;;;;;;;16.88;4.32;;;20.40;99.90;;;;;;4894024;29;20477;-78
2021/08/14 02:45:26;;;;;;;17.58;5.07;;;20.40;99.90;;;;;;4893653;29;20043;-78
2021/08/14 02:47:54;;;;;;;15.10;4.72;;;20.30;99.90;;;;;;4874829;29;20485;-78
2021/08/14 02:50:19;;;;;;;19.83;5.05;;;20.20;99.90;;;;;;4877692;29;20801;-78
2021/08/14 02:52:45;;;;;;;15.95;4.25;;;20.30;99.90;;;;;;4879613;29;20048;-78
2021/08/14 02:55:10;;;;;;;15.38;3.83;;;20.20;99.90;;;;;;4875333;29;20030;-78
2021/08/14 02:57:36;;;;;;;22.58;4.43;;;20.30;99.90;;;;;;4875150;29;20045;-78
2021/08/14 03:00:02;;;;;;;13.85;3.63;;;20.30;99.90;;;;;;4875029;29;20045;-78
2021/08/14 03:02:28;;;;;;;22.05;4.90;;;20.30;99.90;;;;;;4891757;29;20099;-78
2021/08/14 03:04:54;;;;;;;15.02;4.10;;;20.30;99.90;;;;;;4897053;29;20040;-78
2021/08/14 03:07:19;;;;;;;15.02;5.05;;;20.30;99.90;;;;;;4884926;29;20492;-78
2021/08/14 03:09:45;;;;;;;21.73;4.45;;;20.20;99.90;;;;;;4878509;29;20108;-78
2021/08/14 03:12:10;;;;;;;22.75;4.38;;;20.20;99.90;;;;;;4887425;29;20476;-78
2021/08/14 03:14:38;;;;;;;14.23;3.97;;;20.10;99.90;;;;;;4896826;29;20028;-79
2021/08/14 03:17:05;;;;;;;14.77;4.22;;;20.10;99.90;;;;;;4896627;29;20124;-78
2021/08/14 03:19:31;;;;;;;14.35;3.97;;;20.10;99.90;;;;;;4880626;29;20040;-78
2021/08/14 03:21:57;;;;;;;20.15;3.95;;;20.10;99.90;;;;;;4892146;29;20037;-78
2021/08/14 03:24:23;;;;;;;17.95;4.10;;;20.00;99.90;;;;;;4878274;29;20045;-78
2021/08/14 03:26:49;;;;;;;12.80;3.92;;;20.10;99.90;;;;;;4878469;29;20052;-78
2021/08/14 03:29:15;;;;;;;17.15;4.28;;;20.10;99.90;;;;;;4877620;29;20033;-78
2021/08/14 03:31:41;;;;;;;19.75;4.90;;;20.10;99.90;;;;;;4878870;29;20097;-78
2021/08/14 03:34:07;;;;;;;16.00;4.72;;;20.10;99.90;;;;;;4877792;29;20041;-78
2021/08/14 03:36:33;;;;;;;15.77;4.85;;;20.00;99.90;;;;;;4878554;29;20053;-78
2021/08/14 03:38:58;;;;;;;16.70;4.30;;;20.10;99.90;;;;;;4879040;29;20041;-78
2021/08/14 03:41:24;;;;;;;14.93;4.35;;;20.10;99.90;;;;;;4896625;29;20057;-78
2021/08/14 03:43:49;;;;;;;15.68;4.40;;;20.00;99.90;;;;;;4896462;29;20560;-78
2021/08/14 03:46:15;;;;;;;20.85;4.85;;;20.10;99.90;;;;;;4896403;29;20836;-78
2021/08/14 03:48:41;;;;;;;15.75;3.88;;;20.10;99.90;;;;;;4896204;29;20504;-78
2021/08/14 03:51:06;;;;;;;14.88;4.63;;;20.00;99.90;;;;;;4880751;29;20053;-78
2021/08/14 03:53:32;;;;;;;16.38;4.75;;;20.00;99.90;;;;;;4877454;29;20033;-78
2021/08/14 03:55:58;;;;;;;16.88;4.30;;;19.90;99.90;;;;;;4881123;29;20497;-78
2021/08/14 03:58:23;;;;;;;13.80;4.47;;;19.90;99.90;;;;;;4896144;29;20048;-78
2021/08/14 04:00:49;;;;;;;17.63;4.20;;;19.90;99.90;;;;;;4895292;29;20057;-78
2021/08/14 04:03:15;;;;;;;15.68;4.63;;;19.80;99.90;;;;;;4896390;29;20068;-78
2021/08/14 04:05:40;;;;;;;20.13;5.07;;;19.80;99.90;;;;;;4896155;29;20052;-78
2021/08/14 04:08:06;;;;;;;16.38;4.50;;;19.80;99.90;;;;;;4870027;29;20041;-78
2021/08/14 04:10:32;;;;;;;19.60;4.80;;;19.70;99.90;;;;;;4877352;29;20053;-79
2021/08/14 04:12:57;;;;;;;15.52;4.15;;;19.70;99.90;;;;;;4891210;29;20040;-77
2021/08/14 04:15:23;;;;;;;23.38;5.15;;;19.70;99.90;;;;;;4895102;29;20041;-78
2021/08/14 04:17:49;;;;;;;20.25;4.18;;;19.70;99.90;;;;;;4882635;29;20033;-78
2021/08/14 04:20:14;;;;;;;17.27;4.53;;;19.60;99.90;;;;;;4860287;29;20097;-78
2021/08/14 04:22:40;;;;;;;24.70;4.32;;;19.60;99.90;;;;;;4877062;29;20037;-78
2021/08/14 04:25:07;;;;;;;13.25;4.13;;;19.60;99.90;;;;;;4877218;29;20043;-78
2021/08/14 04:27:33;;;;;;;15.90;4.28;;;19.60;99.90;;;;;;4859881;29;20651;-78
2021/08/14 04:30:01;;;;;;;17.38;4.60;;;19.70;99.90;;;;;;4876542;29;20119;-78
2021/08/14 04:32:34;;;;;;;20.20;4.72;;;19.70;99.90;;;;;;4877234;29;20090;-78
2021/08/14 04:35:12;;;;;;;20.00;4.88;;;19.70;99.90;;;;;;4887435;29;20123;-78
2021/08/14 04:37:38;;;;;;;22.48;5.25;;;19.70;99.90;;;;;;4878450;29;20100;-78
2021/08/14 04:40:07;;;;;;;17.38;4.40;;;19.70;99.90;;;;;;4878128;29;20120;-78
2021/08/14 04:42:33;;;;;;;30.48;5.72;;;19.60;99.90;;;;;;4895655;29;20053;-78
2021/08/14 04:44:58;;;;;;;17.30;4.82;;;19.60;99.90;;;;;;4879343;29;20041;-78
2021/08/14 04:47:24;;;;;;;16.38;4.25;;;19.60;99.90;;;;;;4874645;29;20045;-78
2021/08/14 04:49:49;;;;;;;17.38;4.82;;;19.60;99.90;;;;;;4881585;29;20565;-78
2021/08/14 04:52:15;;;;;;;16.90;4.18;;;19.60;99.90;;;;;;4879954;29;20045;-78
2021/08/14 04:54:41;;;;;;;15.73;4.80;;;19.60;99.90;;;;;;4874159;29;20092;-77
2021/08/14 04:57:06;;;;;;;15.65;4.70;;;19.60;99.90;;;;;;4884107;29;20033;-78
2021/08/14 04:59:32;;;;;;;20.45;4.90;;;19.60;99.90;;;;;;4892681;29;20040;-78
2021/08/14 05:01:57;;;;;;;17.95;4.22;;;19.50;99.90;;;;;;4907532;29;20036;-78
2021/08/14 05:04:23;;;;;;;15.13;5.43;;;19.50;99.90;;;;;;4899908;29;20448;-78
2021/08/14 05:06:52;;;;;;;22.45;6.10;;;19.50;99.90;;;;;;4891201;29;20047;-78
2021/08/14 05:09:18;;;;;;;14.02;4.15;;;19.50;99.90;;;;;;4895040;29;20039;-78
2021/08/14 05:11:43;;;;;;;18.90;5.95;;;19.50;99.90;;;;;;4894506;29;20040;-78
2021/08/14 05:14:09;;;;;;;15.13;5.40;;;19.50;99.90;;;;;;4894055;29;20040;-78
2021/08/14 05:16:36;;;;;;;19.25;5.32;;;19.50;99.90;;;;;;4860398;29;20556;-78
2021/08/14 05:19:06;;;;;;;17.45;4.93;;;19.50;99.90;;;;;;4910088;29;20040;-78
2021/08/14 05:21:35;;;;;;;26.33;5.22;;;19.60;99.90;;;;;;4902039;29;20040;-78
2021/08/14 05:24:03;;;;;;;14.98;4.88;;;19.60;99.90;;;;;;4882409;29;20047;-78
2021/08/14 05:26:29;;;;;;;21.45;5.30;;;19.60;99.90;;;;;;4894430;29;20059;-77
2021/08/14 05:28:54;;;;;;;24.02;5.85;;;19.60;99.90;;;;;;4894204;29;20045;-78
2021/08/14 05:31:20;;;;;;;17.85;4.70;;;19.70;99.90;;;;;;4894643;29;20056;-78
2021/08/14 05:33:46;;;;;;;18.38;4.70;;;19.70;99.90;;;;;;4893814;29;20168;-78
2021/08/14 05:36:11;;;;;;;16.67;4.43;;;19.90;99.90;;;;;;4894687;29;20053;-78
2021/08/14 05:38:37;;;;;;;25.98;5.80;;;20.00;99.90;;;;;;4894185;29;20044;-78
2021/08/14 05:41:04;;;;;;;18.60;4.65;;;20.10;99.90;;;;;;4876239;29;20535;-78
2021/08/14 05:43:29;;;;;;;25.23;5.97;;;20.10;99.90;;;;;;4875594;29;20040;-78
2021/08/14 05:45:55;;;;;;;18.02;4.53;;;20.20;99.90;;;;;;4876220;29;20396;-78
2021/08/14 05:48:21;;;;;;;25.48;4.88;;;20.30;99.90;;;;;;4877343;29;20109;-78
2021/08/14 05:50:47;;;;;;;15.15;4.63;;;20.20;99.90;;;;;;4893897;29;20675;-78
2021/08/14 05:53:13;;;;;;;15.45;4.93;;;20.20;99.90;;;;;;4893891;29;20365;-78
2021/08/14 05:55:39;;;;;;;18.30;5.05;;;20.50;99.90;;;;;;4883891;29;20072;-78
2021/08/14 05:58:04;;;;;;;20.20;5.32;;;20.70;99.90;;;;;;4882584;29;20068;-78
2021/08/14 06:00:30;;;;;;;17.40;4.57;;;20.90;99.90;;;;;;4884723;29;20045;-78
2021/08/14 06:02:56;;;;;;;15.13;4.30;;;21.10;99.90;;;;;;4894428;29;20036;-78
2021/08/14 06:05:22;;;;;;;18.55;4.88;;;21.00;99.90;;;;;;4893886;29;20052;-78
2021/08/14 06:07:49;;;;;;;16.08;5.45;;;21.20;99.90;;;;;;4894568;29;20123;-77
2021/08/14 06:10:16;;;;;;;23.58;5.55;;;21.00;99.90;;;;;;4875936;29;20139;-77
2021/08/14 06:12:42;;;;;;;24.23;5.25;;;21.20;99.90;;;;;;4878087;29;20392;-77
2021/08/14 06:15:08;;;;;;;20.20;4.90;;;21.60;99.90;;;;;;4890428;29;20041;-77
2021/08/14 06:17:34;;;;;;;31.40;6.57;;;21.60;99.90;;;;;;4887994;29;20124;-78
2021/08/14 06:20:00;;;;;;;17.80;5.03;;;21.90;99.90;;;;;;4885030;29;20076;-77
2021/08/14 06:22:26;;;;;;;22.40;5.63;;;22.20;99.90;;;;;;4895165;29;20048;-77
2021/08/14 06:24:53;;;;;;;20.45;4.72;;;22.50;99.90;;;;;;4871173;29;20059;-77
2021/08/14 06:27:19;;;;;;;17.15;4.68;;;22.60;99.90;;;;;;4885095;29;20104;-77
2021/08/14 06:29:45;;;;;;;26.83;5.57;;;22.70;99.90;;;;;;4882340;29;20524;-77
2021/08/14 06:32:10;;;;;;;20.80;4.25;;;22.90;99.90;;;;;;4885464;29;20598;-77
2021/08/14 06:34:36;;;;;;;19.77;5.15;;;23.10;99.90;;;;;;4892373;29;20131;-77
2021/08/14 06:37:02;;;;;;;21.35;6.10;;;23.20;99.90;;;;;;4882857;29;20053;-77
2021/08/14 06:39:27;;;;;;;26.85;5.13;;;23.20;99.90;;;;;;4901897;29;20020;-77
2021/08/14 06:41:53;;;;;;;17.17;3.83;;;23.20;99.90;;;;;;4899730;29;20128;-77
2021/08/14 06:44:19;;;;;;;20.45;5.28;;;23.10;99.90;;;;;;4890936;29;20543;-77
2021/08/14 06:46:44;;;;;;;27.92;4.93;;;23.30;99.90;;;;;;4896869;29;20048;-78
2021/08/14 06:49:10;;;;;;;19.45;4.95;;;23.50;99.90;;;;;;4898102;29;20033;-77
2021/08/14 06:51:40;;;;;;;22.02;5.03;;;23.80;99.90;;;;;;4880648;29;20041;-78
2021/08/14 06:54:07;;;;;;;24.73;5.13;;;23.90;99.90;;;;;;4895711;29;20036;-78
2021/08/14 06:56:33;;;;;;;21.00;4.53;;;24.10;99.90;;;;;;4896789;29;20045;-77
2021/08/14 06:58:59;;;;;;;21.17;4.78;;;24.20;99.90;;;;;;4887783;29;20036;-77
2021/08/14 07:01:24;;;;;;;21.83;5.30;;;24.20;99.90;;;;;;4875669;29;20055;-77
2021/08/14 07:03:50;;;;;;;13.18;4.30;;;24.20;99.90;;;;;;4876878;29;20149;-77
2021/08/14 07:06:24;;;;;;;20.85;4.55;;;24.50;99.90;;;;;;4894368;29;20849;-77
2021/08/14 07:08:50;;;;;;;19.63;6.00;;;24.60;99.90;;;;;;4897072;29;20029;-77
2021/08/14 07:11:17;;;;;;;21.75;5.63;;;24.80;99.90;;;;;;4891359;29;20056;-77
2021/08/14 07:13:43;;;;;;;17.80;5.25;;;25.00;99.90;;;;;;4897527;29;20857;-78
2021/08/14 07:16:09;;;;;;;16.58;4.80;;;24.90;99.90;;;;;;4889210;29;20095;-77
2021/08/14 07:18:35;;;;;;;24.13;5.13;;;25.10;99.90;;;;;;4896316;29;20101;-77
2021/08/14 07:21:01;;;;;;;19.83;4.57;;;25.20;99.90;;;;;;4893877;29;20056;-78
2021/08/14 07:23:26;;;;;;;18.65;5.22;;;25.30;99.80;;;;;;4901861;29;20668;-78
2021/08/14 07:25:52;;;;;;;26.17;5.30;;;25.40;99.90;;;;;;4889950;29;20056;-77
2021/08/14 07:28:19;;;;;;;18.90;5.00;;;25.50;99.70;;;;;;4890960;29;20079;-77
2021/08/14 07:30:46;;;;;;;25.30;5.43;;;25.50;99.20;;;;;;4888018;29;20049;-78
2021/08/14 07:33:12;;;;;;;44.17;7.55;;;25.60;98.90;;;;;;4896195;29;20040;-77
2021/08/14 07:35:38;;;;;;;24.70;5.03;;;25.70;98.80;;;;;;4876407;29;20048;-77
2021/08/14 07:38:04;;;;;;;22.95;4.57;;;25.80;98.10;;;;;;4890518;29;20166;-77
2021/08/14 07:40:29;;;;;;;24.33;5.88;;;25.70;97.70;;;;;;4878628;29;20123;-78
2021/08/14 07:42:57;;;;;;;23.42;5.40;;;25.70;98.20;;;;;;4895686;29;20483;-77
2021/08/14 07:45:23;;;;;;;17.20;4.60;;;25.80;97.40;;;;;;4889295;29;20106;-77
2021/08/14 07:47:50;;;;;;;17.98;4.53;;;25.60;97.70;;;;;;4895590;29;20484;-78
2021/08/14 07:50:27;;;;;;;18.17;4.90;;;25.40;98.30;;;;;;4894422;29;20044;-77
2021/08/14 07:52:54;;;;;;;25.65;5.43;;;25.80;97.60;;;;;;4895557;29;20039;-77
2021/08/14 07:55:21;;;;;;;16.50;4.88;;;26.00;97.00;;;;;;4895542;29;20028;-77
2021/08/14 07:57:46;;;;;;;20.70;4.97;;;26.20;97.30;;;;;;4895811;29;20029;-77
2021/08/14 08:00:15;;;;;;;29.08;6.05;;;26.30;96.70;;;;;;4876458;29;20221;-78
2021/08/14 08:02:42;;;;;;;19.90;5.70;;;26.30;96.90;;;;;;4874066;29;20044;-77
2021/08/14 08:05:09;;;;;;;22.15;5.18;;;26.40;97.60;;;;;;4894630;29;20029;-77
2021/08/14 08:07:37;;;;;;;27.35;5.63;;;26.40;97.50;;;;;;4900035;29;20828;-77
2021/08/14 08:10:13;;;;;;;17.70;4.57;;;26.50;97.00;;;;;;4890830;29;20709;-77
2021/08/14 08:12:38;;;;;;;22.00;5.32;;;26.60;96.30;;;;;;4895300;29;20484;-78
2021/08/14 08:15:05;;;;;;;26.13;5.50;;;26.80;96.30;;;;;;4895252;29;20051;-77
2021/08/14 08:17:31;;;;;;;15.85;5.15;;;26.80;96.60;;;;;;4880282;29;20040;-78
2021/08/14 08:19:57;;;;;;;19.58;5.03;;;26.90;96.70;;;;;;4895504;29;20400;-78
2021/08/14 08:22:22;;;;;;;21.52;5.53;;;27.10;95.60;;;;;;4895092;29;20376;-78
2021/08/14 08:24:48;;;;;;;18.95;4.95;;;27.10;95.60;;;;;;4897681;29;20063;-77
2021/08/14 08:27:14;;;;;;;18.75;4.75;;;26.60;96.10;;;;;;4887811;29;20500;-77
2021/08/14 08:29:39;;;;;;;17.08;4.72;;;26.90;95.80;;;;;;4897803;29;20429;-78
2021/08/14 08:32:09;;;;;;;19.67;5.13;;;27.00;95.80;;;;;;4889058;29;20049;-77
2021/08/14 08:34:35;;;;;;;24.05;5.43;;;27.20;95.00;;;;;;4884790;29;20041;-78
2021/08/14 08:37:01;;;;;;;20.27;4.47;;;27.10;94.60;;;;;;4889711;29;20045;-77
2021/08/14 08:39:28;;;;;;;25.27;5.50;;;27.20;94.30;;;;;;4871180;29;20469;-78
2021/08/14 08:41:56;;;;;;;24.85;5.28;;;27.40;94.20;;;;;;4907910;29;20432;-78
2021/08/14 08:44:22;;;;;;;25.40;5.30;;;27.30;94.20;;;;;;4895128;29;20107;-78
2021/08/14 08:46:48;;;;;;;20.30;5.32;;;27.00;93.70;;;;;;4891652;29;20056;-77
2021/08/14 08:49:16;;;;;;;17.58;4.88;;;26.80;93.90;;;;;;4885619;29;20040;-77
2021/08/14 08:51:42;;;;;;;16.55;4.95;;;26.90;94.00;;;;;;4887393;29;20049;-78
2021/08/14 08:54:12;;;;;;;21.10;5.07;;;27.20;94.20;;;;;;4893044;29;20075;-77
2021/08/14 08:56:38;;;;;;;25.33;5.15;;;27.30;93.10;;;;;;4894970;29;20143;-77
2021/08/14 08:59:03;;;;;;;19.20;4.55;;;27.10;93.30;;;;;;4883111;29;20083;-77
2021/08/14 09:01:29;;;;;;;24.67;5.18;;;27.30;93.20;;;;;;4885779;29;20056;-77
2021/08/14 09:04:41;;;;;;;16.83;3.83;;;27.00;93.90;;;;;;4894223;29;20049;-78
2021/08/14 09:07:06;;;;;;;21.27;5.40;;;27.20;93.80;;;;;;4876913;29;20060;-77
2021/08/14 09:09:33;;;;;;;17.90;4.88;;;27.70;93.80;;;;;;4892827;29;20100;-77
2021/08/14 09:12:03;;;;;;;17.88;4.63;;;28.00;93.30;;;;;;4894559;29;20055;-77
2021/08/14 09:14:29;;;;;;;19.08;4.32;;;28.30;92.90;;;;;;4893601;29;20761;-77
2021/08/14 09:17:08;;;;;;;17.63;4.90;;;28.50;92.20;;;;;;4894932;29;20039;-77
2021/08/14 09:19:35;;;;;;;21.38;4.20;;;28.40;91.80;;;;;;4879072;29;20089;-77
2021/08/14 09:22:20;;;;;;;19.45;4.80;;;28.20;92.50;;;;;;4893282;29;20052;-77
2021/08/14 09:24:46;;;;;;;21.77;5.47;;;28.40;93.30;;;;;;4886812;29;20116;-77
2021/08/14 09:27:15;;;;;;;22.73;5.38;;;28.10;92.60;;;;;;4894555;29;20144;-77
2021/08/14 09:29:42;;;;;;;19.85;5.88;;;27.90;92.60;;;;;;4878845;29;20374;-77
2021/08/14 09:32:10;;;;;;;18.30;4.82;;;28.30;92.50;;;;;;4877722;29;20416;-78
2021/08/14 09:34:53;;;;;;;25.15;5.35;;;28.50;92.30;;;;;;4889968;29;20706;-77
2021/08/14 09:37:19;;;;;;;17.55;4.72;;;28.80;91.00;;;;;;4885637;29;20048;-78
2021/08/14 09:39:57;;;;;;;18.95;4.55;;;28.80;91.50;;;;;;4890304;29;20076;-77
2021/08/14 09:42:24;;;;;;;18.65;4.75;;;28.90;91.60;;;;;;4885646;29;20052;-77
2021/08/14 09:45:12;;;;;;;25.23;5.03;;;29.00;90.50;;;;;;4893024;29;20048;-77
2021/08/14 09:47:39;;;;;;;18.35;4.97;;;28.60;90.90;;;;;;4888489;29;20048;-78
2021/08/14 09:50:05;;;;;;;21.17;5.30;;;28.40;91.20;;;;;;4880441;29;20052;-78
2021/08/14 09:52:30;;;;;;;20.40;4.93;;;28.80;91.90;;;;;;4899104;29;20049;-77
2021/08/14 09:54:56;;;;;;;19.67;5.25;;;29.10;91.20;;;;;;4889883;29;21836;-78
2021/08/14 09:57:23;;;;;;;25.67;5.50;;;29.20;90.90;;;;;;4888091;29;20041;-77
2021/08/14 09:59:50;;;;;;;24.73;5.65;;;28.80;91.40;;;;;;4893573;29;20041;-77
2021/08/14 10:02:27;;;;;;;19.25;5.18;;;28.70;91.60;;;;;;4888530;29;20052;-78
2021/08/14 10:04:57;;;;;;;20.73;4.97;;;28.70;91.60;;;;;;4901572;29;20051;-77
2021/08/14 10:07:24;;;;;;;20.13;5.38;;;28.70;92.20;;;;;;4887576;29;20045;-77
2021/08/14 10:09:52;;;;;;;21.30;5.28;;;28.80;92.20;;;;;;4873642;29;20041;-78
2021/08/14 10:12:19;;;;;;;17.17;4.88;;;28.60;92.90;;;;;;4883699;29;20139;-77
2021/08/14 10:14:47;;;;;;;22.92;5.20;;;28.40;92.40;;;;;;4897979;29;20041;-78
2021/08/14 10:17:15;;;;;;;24.42;5.50;;;28.40;92.30;;;;;;4880259;29;20073;-78
2021/08/14 10:19:41;;;;;;;21.45;5.40;;;28.50;92.10;;;;;;4898171;29;20033;-77
2021/08/14 10:22:09;;;;;;;14.82;3.80;;;28.40;92.40;;;;;;4868534;29;20052;-77
2021/08/14 10:24:37;;;;;;;17.55;4.68;;;28.70;92.00;;;;;;4896572;29;20115;-77
2021/08/14 10:27:07;;;;;;;21.10;5.35;;;28.50;91.80;;;;;;4887126;29;20053;-78
2021/08/14 10:29:47;;;;;;;20.67;5.20;;;28.70;92.50;;;;;;4900919;29;20033;-77
2021/08/14 10:32:45;;;;;;;22.83;5.47;;;29.30;91.70;;;;;;4879822;29;20055;-77
2021/08/14 10:35:20;;;;;;;20.00;4.80;;;28.80;90.50;;;;;;4901513;29;20042;-78
2021/08/14 10:37:49;;;;;;;25.35;5.38;;;28.90;91.20;;;;;;4884498;29;20859;-78
2021/08/14 10:40:17;;;;;;;15.65;4.85;;;28.90;90.90;;;;;;4895321;29;20062;-78
2021/08/14 10:42:49;;;;;;;20.73;5.57;;;29.40;91.10;;;;;;4879533;29;20055;-77
2021/08/14 10:45:22;;;;;;;17.45;4.35;;;29.70;90.60;;;;;;4873489;29;20052;-78
2021/08/14 10:47:50;;;;;;;16.83;4.25;;;30.00;90.20;;;;;;4889880;29;20048;-78
2021/08/14 10:50:33;;;;;;;17.98;5.20;;;30.10;88.00;;;;;;4911093;29;20041;-78
2021/08/14 10:53:11;;;;;;;20.05;4.72;;;30.50;89.40;;;;;;4885344;29;20152;-78
2021/08/14 10:55:42;;;;;;;16.80;4.85;;;30.70;89.50;;;;;;4883436;29;20044;-78
2021/08/14 10:58:37;;;;;;;16.48;4.68;;;30.90;88.60;;;;;;4873459;29;20606;-78
2021/08/14 11:01:02;;;;;;;21.33;5.13;;;31.10;88.00;;;;;;4883792;29;20040;-78
2021/08/14 11:03:33;;;;;;;21.45;5.10;;;31.10;89.20;;;;;;4887020;29;20049;-78
2021/08/14 11:06:28;;;;;;;18.20;5.00;;;31.20;88.80;;;;;;4897231;29;20056;-78
2021/08/14 11:09:16;;;;;;;20.52;5.10;;;30.80;88.30;;;;;;4893146;29;20041;-77
2021/08/14 11:11:42;;;;;;;18.00;4.72;;;31.00;87.70;;;;;;4891104;29;20055;-77
2021/08/14 11:14:12;;;;;;;20.15;5.40;;;31.30;87.80;;;;;;4882981;29;20085;-77
2021/08/14 11:16:58;;;;;;;22.25;4.25;;;31.00;88.30;;;;;;4902021;29;20109;-78
2021/08/14 11:19:42;;;;;;;20.23;5.03;;;30.50;87.60;;;;;;4893869;29;20032;-78
2021/08/14 11:22:29;;;;;;;20.38;5.30;;;30.90;89.30;;;;;;4893042;29;20087;-78
2021/08/14 11:25:01;;;;;;;19.10;5.05;;;30.90;89.50;;;;;;4882054;29;20055;-78
2021/08/14 11:27:34;;;;;;;14.93;5.28;;;30.10;90.40;;;;;;4879363;29;20118;-78
2021/08/14 11:30:08;;;;;;;19.27;4.90;;;30.60;90.40;;;;;;4896068;29;20032;-78
2021/08/14 11:32:34;;;;;;;19.23;4.55;;;30.90;90.70;;;;;;4888265;29;20384;-78
2021/08/14 11:35:05;;;;;;;19.08;4.82;;;30.90;90.80;;;;;;4894233;29;20040;-78
2021/08/14 11:37:30;;;;;;;17.88;4.63;;;30.80;91.00;;;;;;4894054;29;20075;-77
2021/08/14 11:40:02;;;;;;;18.63;5.20;;;30.60;90.70;;;;;;4879247;29;20073;-78
2021/08/14 11:42:30;;;;;;;17.80;4.60;;;30.50;90.70;;;;;;4891457;29;20044;-78
2021/08/14 11:44:58;;;;;;;23.70;4.65;;;30.40;90.60;;;;;;4896366;29;20072;-78
2021/08/14 11:47:32;;;;;;;19.08;4.93;;;30.80;91.30;;;;;;4899305;29;20151;-78
2021/08/14 11:50:00;;;;;;;17.77;4.50;;;30.80;90.10;;;;;;4884847;29;20388;-77
2021/08/14 11:52:27;;;;;;;22.10;5.20;;;30.80;89.10;;;;;;4908505;29;20868;-78
2021/08/14 11:55:05;;;;;;;20.58;4.85;;;30.80;88.70;;;;;;4899251;29;20381;-77
2021/08/14 11:57:37;;;;;;;24.75;5.75;;;30.40;90.60;;;;;;4889975;29;20052;-78
2021/08/14 12:00:25;;;;;;;16.50;4.50;;;30.50;92.00;;;;;;4879824;29;20087;-78
2021/08/14 12:03:09;;;;;;;29.27;4.75;;;30.20;90.90;;;;;;4879113;29;20521;-78
2021/08/14 12:05:36;;;;;;;16.23;4.35;;;30.00;91.40;;;;;;4889991;29;20052;-78
2021/08/14 12:08:02;;;;;;;21.02;4.30;;;30.30;92.00;;;;;;4895590;29;20080;-78
2021/08/14 12:10:28;;;;;;;20.88;4.80;;;30.50;90.90;;;;;;4905439;29;20104;-78
2021/08/14 12:12:58;;;;;;;17.73;4.55;;;30.20;91.30;;;;;;4896930;29;20117;-78
2021/08/14 12:15:37;;;;;;;19.58;4.85;;;30.00;91.50;;;;;;4877783;29;20447;-78
2021/08/14 12:18:04;;;;;;;20.65;4.78;;;30.00;91.50;;;;;;4878726;29;20049;-78
2021/08/14 12:20:31;;;;;;;20.67;4.90;;;30.40;92.00;;;;;;4882413;29;20768;-78
2021/08/14 12:23:21;;;;;;;14.30;4.25;;;30.50;91.70;;;;;;4895208;29;20131;-78
2021/08/14 12:25:58;;;;;;;19.67;4.78;;;30.40;91.80;;;;;;4894472;29;20076;-78
2021/08/14 12:28:35;;;;;;;20.77;5.25;;;30.80;92.30;;;;;;4894696;29;20059;-78
2021/08/14 12:31:19;;;;;;;23.35;5.43;;;30.60;91.80;;;;;;4894289;29;20051;-78
2021/08/14 12:33:50;;;;;;;18.33;5.07;;;30.70;92.70;;;;;;4888830;29;20049;-78
2021/08/14 12:36:29;;;;;;;;;;;31.00;92.00;;;;;;4882655;29;20041;-78
2021/08/14 12:38:55;;;;;;;15.43;4.60;;;31.20;92.10;;;;;;4896370;29;20345;-78
2021/08/14 12:41:21;;;;;;;21.48;5.60;;;31.30;91.50;;;;;;4883833;29;20128;-78
2021/08/14 12:43:51;;;;;;;21.00;4.60;;;31.10;91.90;;;;;;4877512;29;20049;-78